createdAt,value
2022-11-13T00:03:25.882Z,4.70
2022-11-13T00:07:28.812Z,4.60
2022-11-13T00:11:33.446Z,4.60
2022-11-13T00:15:36.374Z,4.50
2022-11-13T00:19:39.237Z,4.50
2022-11-13T00:23:42.181Z,4.50
2022-11-13T00:27:46.385Z,4.40
2022-11-13T00:31:50.295Z,4.40
2022-11-13T00:35:53.148Z,4.30
2022-11-13T00:39:59.615Z,4.30
2022-11-13T00:44:04.436Z,4.30
2022-11-13T00:48:07.534Z,4.20
2022-11-13T00:52:10.416Z,4.20
2022-11-13T00:56:13.256Z,4.20
2022-11-13T01:00:18.014Z,4.10
2022-11-13T01:04:20.874Z,4.10
2022-11-13T01:08:23.760Z,4.10
2022-11-13T01:12:26.673Z,4.10
2022-11-13T01:16:31.263Z,4.00
2022-11-13T01:20:34.288Z,4.00
2022-11-13T01:24:37.161Z,4.00
2022-11-13T01:28:40.423Z,4.00
2022-11-13T01:32:44.659Z,4.00
2022-11-13T01:36:47.551Z,3.90
2022-11-13T01:40:51.539Z,3.90
2022-11-13T01:44:55.559Z,3.90
2022-11-13T01:49:05.342Z,3.80
2022-11-13T01:53:08.386Z,3.80
2022-11-13T01:57:11.630Z,3.80
2022-11-13T02:01:15.502Z,3.80
2022-11-13T02:05:19.827Z,3.80
2022-11-13T02:09:25.128Z,3.80
2022-11-13T02:13:27.976Z,3.70
2022-11-13T02:17:32.284Z,3.70
2022-11-13T02:21:41.734Z,3.70
2022-11-13T02:25:46.424Z,3.70
2022-11-13T02:29:49.284Z,3.60
2022-11-13T02:33:52.143Z,3.60
2022-11-13T02:37:56.043Z,3.50
2022-11-13T02:42:00.271Z,3.50
2022-11-13T02:46:03.120Z,3.50
2022-11-13T02:50:06.641Z,3.40
2022-11-13T02:54:14.146Z,3.40
2022-11-13T02:58:20.920Z,3.40
2022-11-13T03:02:23.736Z,3.40
2022-11-13T03:06:26.610Z,3.30
2022-11-13T03:10:29.500Z,3.30
2022-11-13T03:14:33.698Z,3.30
2022-11-13T03:18:36.590Z,3.30
2022-11-13T03:22:39.401Z,3.30
2022-11-13T03:26:42.257Z,3.20
2022-11-13T03:30:48.274Z,3.20
2022-11-13T03:34:51.157Z,3.20
2022-11-13T03:38:54.191Z,3.20
2022-11-13T03:42:57.080Z,3.20
2022-11-13T03:47:01.674Z,3.10
2022-11-13T03:51:04.686Z,3.10
2022-11-13T03:55:07.904Z,3.10
2022-11-13T03:59:10.733Z,3.10
2022-11-13T04:03:15.067Z,3.00
2022-11-13T04:07:17.928Z,3.00
2022-11-13T04:11:20.801Z,2.90
2022-11-13T04:15:23.684Z,3.00
2022-11-13T04:19:27.889Z,2.90
2022-11-13T04:23:30.726Z,2.80
2022-11-13T04:27:33.600Z,2.80
2022-11-13T04:31:36.423Z,2.80
2022-11-13T04:39:45.898Z,2.80
2022-11-13T04:43:48.734Z,2.70
2022-11-13T04:47:52.301Z,2.70
2022-11-13T04:51:55.190Z,2.70
2022-11-13T04:55:59.401Z,2.70
2022-11-13T05:00:02.659Z,2.70
2022-11-13T05:04:05.568Z,2.60
2022-11-13T05:08:08.463Z,2.60
2022-11-13T05:12:12.727Z,2.60
2022-11-13T05:16:16.008Z,2.60
2022-11-13T05:20:18.875Z,2.50
2022-11-13T05:24:21.729Z,2.50
2022-11-13T05:28:27.192Z,2.50
2022-11-13T05:32:30.285Z,2.40
2022-11-13T05:36:33.274Z,2.40
2022-11-13T05:40:36.111Z,2.40
2022-11-13T05:44:40.340Z,2.30
2022-11-13T05:48:43.572Z,2.30
2022-11-13T05:52:46.455Z,2.30
2022-11-13T05:56:49.306Z,2.30
2022-11-13T06:00:53.593Z,2.30
2022-11-13T06:04:56.705Z,2.20
2022-11-13T06:09:00.714Z,2.20
2022-11-13T06:13:03.583Z,2.20
2022-11-13T06:17:07.816Z,2.20
2022-11-13T06:21:11.540Z,2.20
2022-11-13T06:25:14.404Z,2.20
2022-11-13T06:29:17.249Z,2.20
2022-11-13T06:33:21.510Z,2.10
2022-11-13T06:37:24.364Z,2.10
2022-11-13T06:41:29.371Z,2.20
2022-11-13T06:45:33.107Z,2.20
2022-11-13T06:49:37.423Z,2.20
2022-11-13T06:53:40.311Z,2.20
2022-11-13T06:57:43.278Z,2.20
2022-11-13T07:01:46.150Z,2.20
2022-11-13T07:05:50.461Z,2.20
2022-11-13T07:09:53.555Z,2.20
2022-11-13T07:13:56.727Z,2.20
2022-11-13T07:18:01.201Z,2.20
2022-11-13T07:22:05.569Z,2.20
2022-11-13T07:26:09.010Z,2.30
2022-11-13T07:30:12.413Z,2.30
2022-11-13T07:34:15.911Z,2.40
2022-11-13T07:38:20.240Z,2.40
2022-11-13T07:42:23.088Z,2.40
2022-11-13T07:46:25.942Z,2.40
2022-11-13T07:50:29.192Z,2.50
2022-11-13T07:54:33.819Z,2.50
2022-11-13T07:58:36.934Z,2.60
2022-11-13T08:02:39.911Z,2.70
2022-11-13T08:06:42.793Z,2.70
2022-11-13T08:10:47.014Z,2.80
2022-11-13T08:14:49.891Z,2.90
2022-11-13T08:18:52.930Z,3.00
2022-11-13T08:27:00.305Z,3.30
2022-11-13T08:31:03.626Z,3.50
2022-11-13T08:35:07.002Z,3.70
2022-11-13T08:43:14.614Z,4.40
2022-11-13T08:47:17.494Z,5.00
2022-11-13T08:51:20.634Z,6.20
2022-11-13T08:55:23.717Z,6.90
2022-11-13T08:59:28.187Z,7.70
2022-11-13T09:03:31.117Z,8.40
2022-11-13T09:07:34.169Z,8.80
2022-11-13T09:11:37.093Z,9.10
2022-11-13T09:15:42.232Z,9.20
2022-11-13T09:19:45.050Z,9.40
2022-11-13T09:23:47.929Z,9.70
2022-11-13T09:27:53.191Z,10.00
2022-11-13T09:31:57.619Z,10.40
2022-11-13T09:36:00.534Z,11.10
2022-11-13T09:40:03.611Z,13.20
2022-11-13T09:44:07.887Z,14.80
2022-11-13T09:48:19.409Z,15.60
2022-11-13T09:52:23.510Z,16.20
2022-11-13T09:56:28.518Z,17.70
2022-11-13T10:00:34.725Z,18.60
2022-11-13T14:16:32.670Z,13.80
2022-11-13T14:20:40.533Z,13.60
2022-11-13T14:24:47.317Z,13.40
2022-11-13T14:28:53.794Z,13.20
2022-11-13T14:32:58.717Z,13.00
2022-11-13T14:37:12.973Z,12.90
2022-11-13T14:41:25.402Z,12.70
2022-11-13T14:45:29.546Z,12.50
2022-11-13T14:49:35.201Z,12.40
2022-11-13T14:53:38.907Z,12.20
2022-11-13T14:57:48.241Z,12.00
2022-11-13T15:05:55.640Z,11.60
2022-11-13T15:09:58.736Z,11.50
2022-11-13T15:14:04.512Z,11.30
2022-11-13T15:18:08.053Z,11.20
2022-11-13T15:22:26.525Z,11.00
2022-11-13T15:26:30.307Z,10.90
2022-11-13T15:30:33.425Z,10.80
2022-11-13T15:34:36.258Z,10.70
2022-11-13T15:38:40.502Z,10.70
2022-11-13T15:42:43.816Z,10.60
2022-11-13T15:46:46.670Z,10.50
2022-11-13T15:50:49.552Z,10.50
2022-11-13T15:54:54.179Z,10.40
2022-11-13T15:58:57.131Z,10.40
2022-11-13T16:03:00.035Z,10.30
2022-11-13T16:07:02.966Z,10.30
2022-11-13T16:11:07.476Z,10.30
2022-11-13T16:15:13.867Z,10.20
2022-11-13T16:19:21.267Z,10.20
2022-11-13T16:23:24.142Z,10.10
2022-11-13T16:27:29.552Z,10.10
2022-11-13T16:31:32.354Z,10.00
2022-11-13T16:35:35.222Z,10.00
2022-11-13T16:39:38.059Z,9.90
2022-11-13T16:43:42.269Z,9.90
2022-11-13T16:47:45.291Z,9.90
2022-11-13T16:51:48.221Z,9.80
2022-11-13T16:55:51.031Z,9.80
2022-11-13T16:59:57.115Z,9.70
2022-11-13T17:03:59.997Z,9.70
2022-11-13T17:08:02.956Z,9.70
2022-11-13T17:12:05.977Z,9.70
2022-11-13T17:16:12.272Z,9.60
2022-11-13T17:20:18.220Z,9.60
2022-11-13T17:24:21.063Z,9.50
2022-11-13T17:28:24.200Z,9.50
2022-11-13T17:32:29.858Z,9.50
2022-11-13T17:36:35.866Z,9.50
2022-11-13T17:40:40.758Z,9.40
2022-11-13T17:44:43.622Z,9.40
2022-11-13T17:48:49.121Z,9.30
2022-11-13T17:52:52.010Z,9.30
2022-11-13T17:56:55.909Z,9.20
2022-11-13T18:01:04.184Z,9.20
2022-11-13T18:05:09.987Z,9.20
2022-11-13T18:09:13.104Z,9.20
2022-11-13T18:13:17.966Z,9.20
2022-11-13T18:17:20.965Z,9.20
2022-11-13T18:21:26.147Z,9.20
2022-11-13T18:25:30.055Z,9.10
2022-11-13T18:29:42.212Z,9.10
2022-11-13T18:33:45.450Z,9.10
2022-11-13T18:37:52.262Z,9.10
2022-11-13T18:41:59.105Z,9.10
2022-11-13T18:46:04.861Z,9.10
2022-11-13T18:50:07.889Z,9.10
2022-11-13T18:54:12.904Z,9.00
2022-11-13T18:58:15.746Z,9.00
2022-11-13T19:02:18.710Z,9.00
2022-11-13T19:06:22.475Z,8.90
2022-11-13T19:10:27.431Z,8.90
2022-11-13T19:14:32.338Z,8.90
2022-11-13T19:18:35.289Z,8.80
2022-11-13T19:22:38.247Z,8.80
2022-11-13T19:26:42.661Z,8.70
2022-11-13T19:30:46.420Z,8.70
2022-11-13T19:34:49.249Z,8.70
2022-11-13T19:38:52.789Z,8.70
2022-11-13T19:42:57.209Z,8.70
2022-11-13T19:47:00.090Z,8.60
2022-11-13T19:51:03.451Z,8.60
2022-11-13T19:55:06.433Z,8.60
2022-11-13T20:03:16.964Z,8.50
2022-11-13T20:07:19.887Z,8.50
2022-11-13T20:11:22.820Z,8.40
2022-11-13T20:15:26.050Z,8.40
2022-11-13T20:19:30.376Z,8.40
2022-11-13T20:23:33.346Z,8.30
2022-11-13T20:27:37.450Z,8.30
2022-11-13T20:31:40.658Z,8.30
2022-11-13T20:35:45.152Z,8.30
2022-11-13T20:39:47.981Z,8.20
2022-11-13T20:47:53.986Z,8.20
2022-11-13T20:51:58.170Z,8.20
2022-11-13T20:56:01.069Z,8.20
2022-11-13T21:00:04.015Z,8.20
2022-11-13T21:04:06.871Z,8.20
2022-11-13T21:08:11.889Z,8.20
2022-11-13T21:12:14.739Z,8.20
2022-11-13T21:16:17.786Z,8.20
2022-11-13T21:20:20.687Z,8.20
2022-11-13T21:24:24.894Z,8.20
2022-11-13T21:28:32.288Z,8.20
2022-11-13T21:32:37.335Z,8.20
2022-11-13T21:36:40.159Z,8.20
2022-11-13T21:40:44.521Z,8.20
2022-11-13T21:44:47.406Z,8.20
2022-11-13T21:48:50.662Z,8.20
2022-11-13T21:52:54.058Z,8.20
2022-11-13T21:56:58.248Z,8.20
2022-11-13T22:01:01.327Z,8.20
2022-11-13T22:05:04.210Z,8.20
2022-11-13T22:09:08.168Z,8.20
2022-11-13T22:13:12.423Z,8.20
2022-11-13T22:17:15.335Z,8.20
2022-11-13T22:21:18.194Z,8.20
2022-11-13T22:25:21.131Z,8.20
2022-11-13T22:29:25.360Z,8.20
2022-11-13T22:33:28.973Z,8.20
2022-11-13T22:37:32.777Z,8.10
2022-11-13T22:41:36.545Z,8.10
2022-11-13T22:45:40.769Z,8.00
2022-11-13T22:49:43.622Z,8.00
2022-11-13T22:53:49.311Z,7.90
2022-11-13T22:57:52.142Z,7.90
2022-11-13T23:01:56.358Z,7.90
2022-11-13T23:05:59.246Z,7.80
2022-11-13T23:10:02.130Z,7.80
2022-11-13T23:14:06.084Z,7.80
2022-11-13T23:18:10.331Z,7.80
2022-11-13T23:22:14.630Z,7.80
2022-11-13T23:26:17.967Z,7.80
2022-11-13T23:30:20.809Z,7.80
2022-11-13T23:34:45.301Z,7.80
2022-11-13T23:38:47.838Z,7.80
2022-11-13T23:42:55.579Z,7.80
2022-11-13T23:46:58.739Z,7.80
2022-11-13T23:51:03.124Z,7.90
2022-11-13T23:55:06.315Z,7.80
2022-11-13T23:59:09.468Z,7.80
